Time;durP1;ratioP1;P1;durP2;ratioP2;P2;SDS_P1;SDS_P2;PMS_P1;PMS_P2;Temp;Humidity;BMP_temperature;BMP_pressure;BME280_temperature;BME280_humidity;BME280_pressure;Samples;Min_cycle;Max_cycle;Signal;HPM_P1;HPM_P2
2022/01/02 00:00:16;;;;;;;;;26.00;25.33;;;;;;;;4977594;28;45583;-64
2022/01/02 00:02:42;;;;;;;;;24.67;23.67;;;;;;;;4976869;28;45250;-64
2022/01/02 00:05:08;;;;;;;;;22.67;20.33;;;;;;;;4976074;28;45352;-64
2022/01/02 00:07:35;;;;;;;;;23.00;22.67;;;;;;;;4977716;28;45334;-62
2022/01/02 00:10:02;;;;;;;;;23.67;21.67;;;;;;;;4977457;28;45437;-62
2022/01/02 00:12:31;;;;;;;;;24.33;22.33;;;;;;;;4977265;28;46051;-64
2022/01/02 00:14:58;;;;;;;;;25.67;23.33;;;;;;;;4976648;28;45310;-64
2022/01/02 00:17:23;;;;;;;;;24.00;23.00;;;;;;;;4977246;28;45446;-64
2022/01/02 00:19:53;;;;;;;;;24.33;23.00;;;;;;;;4977221;28;45586;-62
2022/01/02 00:22:27;;;;;;;;;21.00;21.00;;;;;;;;4976987;28;45393;-63
2022/01/02 00:24:53;;;;;;;;;24.33;23.33;;;;;;;;4976759;28;45390;-63
2022/01/02 00:27:19;;;;;;;;;26.33;24.67;;;;;;;;4977308;28;45631;-63
2022/01/02 00:29:44;;;;;;;;;27.67;25.33;;;;;;;;4976330;28;45559;-62
2022/01/02 00:32:10;;;;;;;;;25.33;21.67;;;;;;;;4975659;28;47186;-65
2022/01/02 00:34:36;;;;;;;;;23.67;22.33;;;;;;;;4977248;28;45377;-62
2022/01/02 00:37:02;;;;;;;;;22.00;21.33;;;;;;;;4976554;28;45347;-64
2022/01/02 00:39:27;;;;;;;;;20.67;19.67;;;;;;;;4976939;28;45326;-62
2022/01/02 00:41:54;;;;;;;;;23.67;22.67;;;;;;;;4976910;28;46110;-62
2022/01/02 00:44:27;;;;;;;;;23.33;23.00;;;;;;;;4976804;28;45328;-63
2022/01/02 00:46:57;;;;;;;;;25.00;21.33;;;;;;;;4976511;28;45320;-63
2022/01/02 00:49:26;;;;;;;;;23.00;20.67;;;;;;;;4977109;28;45296;-65
2022/01/02 00:51:55;;;;;;;;;20.33;20.33;;;;;;;;4976863;28;46113;-62
2022/01/02 00:54:22;;;;;;;;;21.67;20.67;;;;;;;;4976799;28;45432;-62
2022/01/02 00:56:51;;;;;;;;;20.00;19.00;;;;;;;;4976870;28;45286;-64
2022/01/02 00:59:29;;;;;;;;;24.67;22.67;;;;;;;;4976327;28;45651;-63
2022/01/02 01:01:58;;;;;;;;;22.67;22.67;;;;;;;;4976520;28;45306;-65
2022/01/02 01:04:24;;;;;;;;;23.00;21.00;;;;;;;;4976493;28;45192;-63
2022/01/02 01:06:52;;;;;;;;;24.00;23.00;;;;;;;;4976537;28;45310;-64
2022/01/02 01:09:17;;;;;;;;;23.33;20.00;;;;;;;;4975946;28;45352;-62
2022/01/02 01:11:44;;;;;;;;;24.00;22.33;;;;;;;;4976344;28;46298;-63
2022/01/02 01:14:09;;;;;;;;;23.67;20.00;;;;;;;;4976683;28;45468;-62
2022/01/02 01:16:34;;;;;;;;;25.67;22.33;;;;;;;;4976638;28;45370;-63
2022/01/02 01:19:02;;;;;;;;;21.33;21.33;;;;;;;;4976686;28;45414;-61
2022/01/02 01:21:28;;;;;;;;;24.33;24.33;;;;;;;;4975795;28;45337;-65
2022/01/02 01:23:53;;;;;;;;;24.00;20.33;;;;;;;;4976432;28;45554;-62
2022/01/02 01:26:19;;;;;;;;;23.33;21.00;;;;;;;;4976323;28;45254;-64
2022/01/02 01:28:44;;;;;;;;;26.67;21.00;;;;;;;;4976431;28;45308;-65
2022/01/02 01:31:10;;;;;;;;;23.33;23.33;;;;;;;;4975722;28;45383;-63
2022/01/02 01:33:35;;;;;;;;;22.33;22.33;;;;;;;;4976105;28;45299;-65
2022/01/02 01:36:00;;;;;;;;;21.33;20.67;;;;;;;;4976144;28;45269;-64
2022/01/02 01:38:25;;;;;;;;;22.00;22.00;;;;;;;;4976126;28;45552;-65
2022/01/02 01:40:57;;;;;;;;;23.67;21.67;;;;;;;;4976189;28;45467;-63
2022/01/02 01:43:39;;;;;;;;;22.33;21.00;;;;;;;;4979043;28;45230;-65
2022/01/02 01:46:05;;;;;;;;;24.33;20.67;;;;;;;;4979704;28;45274;-63
2022/01/02 01:48:30;;;;;;;;;17.00;16.67;;;;;;;;4979511;28;45263;-63
2022/01/02 01:50:55;;;;;;;;;23.67;22.67;;;;;;;;4979426;28;45920;-62
2022/01/02 01:53:21;;;;;;;;;19.67;19.67;;;;;;;;4977458;28;45301;-62
2022/01/02 01:55:46;;;;;;;;;34.67;33.00;;;;;;;;4979488;28;45271;-64
2022/01/02 01:58:11;;;;;;;;;23.00;21.33;;;;;;;;4979600;28;45507;-63
2022/01/02 02:00:36;;;;;;;;;21.67;21.33;;;;;;;;4979176;28;45966;-66
2022/01/02 02:03:02;;;;;;;;;21.00;21.00;;;;;;;;4979358;28;45310;-63
2022/01/02 02:05:27;;;;;;;;;25.00;25.00;;;;;;;;4978796;28;45389;-65
2022/01/02 02:07:53;;;;;;;;;25.00;24.00;;;;;;;;4979395;28;45349;-64
2022/01/02 02:10:25;;;;;;;;;26.33;25.00;;;;;;;;4979056;28;46110;-62
2022/01/02 02:12:52;;;;;;;;;20.33;17.33;;;;;;;;4974414;28;45389;-64
2022/01/02 02:15:17;;;;;;;;;21.00;20.33;;;;;;;;4959179;28;45326;-65
2022/01/02 02:17:46;;;;;;;;;19.00;18.33;;;;;;;;4959652;28;45595;-63
2022/01/02 02:20:31;;;;;;;;;21.67;21.67;;;;;;;;4959193;28;46142;-64
2022/01/02 02:22:59;;;;;;;;;22.67;22.33;;;;;;;;4958966;28;45263;-62
2022/01/02 02:25:25;;;;;;;;;22.00;22.00;;;;;;;;4959108;28;45188;-63
2022/01/02 02:27:52;;;;;;;;;25.00;23.67;;;;;;;;4959162;28;45389;-63
2022/01/02 02:30:18;;;;;;;;;22.67;22.00;;;;;;;;4958981;28;45519;-61
2022/01/02 02:32:44;;;;;;;;;23.00;22.67;;;;;;;;4959089;28;45385;-63
2022/01/02 02:35:09;;;;;;;;;19.67;19.67;;;;;;;;4958151;28;45421;-64
2022/01/02 02:37:37;;;;;;;;;22.67;22.67;;;;;;;;4958987;28;45596;-62
2022/01/02 02:40:02;;;;;;;;;15.67;14.33;;;;;;;;4959472;28;45286;-63
2022/01/02 02:42:40;;;;;;;;;18.67;17.33;;;;;;;;4958066;28;45290;-63
2022/01/02 02:48:58;;;;;;;;;13.33;13.33;;;;;;;;4959873;28;45325;-64
2022/01/02 02:50:36;;;;;;;;;15.33;15.33;;;;;;;;4959305;28;45763;-64
2022/01/02 02:53:02;;;;;;;;;21.00;16.00;;;;;;;;4958671;28;45459;-65
2022/01/02 02:55:31;;;;;;;;;17.67;16.67;;;;;;;;4959288;28;45342;-62
2022/01/02 02:57:58;;;;;;;;;16.00;15.00;;;;;;;;4959348;28;45337;-64
2022/01/02 03:00:23;;;;;;;;;17.00;17.00;;;;;;;;4958668;28;45442;-64
2022/01/02 03:02:49;;;;;;;;;17.67;17.67;;;;;;;;4959037;28;45414;-63
2022/01/02 03:05:14;;;;;;;;;17.67;17.67;;;;;;;;4959249;28;45275;-64
2022/01/02 03:07:39;;;;;;;;;16.33;16.00;;;;;;;;4959011;28;45283;-62
2022/01/02 03:10:08;;;;;;;;;16.67;16.67;;;;;;;;4958418;28;45361;-62
2022/01/02 03:12:33;;;;;;;;;18.00;16.33;;;;;;;;4957634;28;45211;-61
2022/01/02 03:14:58;;;;;;;;;17.00;16.00;;;;;;;;4958801;28;45278;-64
2022/01/02 03:17:24;;;;;;;;;18.00;18.00;;;;;;;;4959103;28;45485;-64
2022/01/02 03:19:49;;;;;;;;;18.67;17.67;;;;;;;;4973381;28;46266;-62
2022/01/02 03:22:14;;;;;;;;;15.67;14.67;;;;;;;;4958146;28;45536;-64
2022/01/02 03:24:39;;;;;;;;;16.33;15.67;;;;;;;;4958901;28;45309;-64
2022/01/02 03:27:04;;;;;;;;;18.00;17.00;;;;;;;;4958866;28;45592;-63
2022/01/02 03:29:30;;;;;;;;;16.67;15.33;;;;;;;;4958560;28;46189;-64
2022/01/02 03:31:55;;;;;;;;;17.33;16.67;;;;;;;;4958133;28;45228;-63
2022/01/02 03:34:20;;;;;;;;;17.67;16.33;;;;;;;;4959117;28;45306;-63
2022/01/02 03:36:45;;;;;;;;;19.67;16.33;;;;;;;;4958846;28;45230;-63
2022/01/02 03:39:10;;;;;;;;;15.00;14.33;;;;;;;;4958542;28;46425;-64
2022/01/02 03:41:36;;;;;;;;;18.33;18.33;;;;;;;;4958598;28;45391;-64
2022/01/02 03:44:01;;;;;;;;;20.00;20.00;;;;;;;;4956816;28;45503;-63
2022/01/02 03:46:26;;;;;;;;;19.33;18.33;;;;;;;;4958756;28;45404;-62
2022/01/02 03:48:51;;;;;;;;;19.00;18.00;;;;;;;;4958398;28;45405;-62
2022/01/02 03:51:16;;;;;;;;;13.33;12.00;;;;;;;;4958823;28;45385;-64
2022/01/02 03:53:42;;;;;;;;;15.67;14.00;;;;;;;;4958315;28;45462;-62
2022/01/02 03:56:07;;;;;;;;;17.00;14.67;;;;;;;;4958289;28;45482;-64
2022/01/02 03:58:32;;;;;;;;;16.33;16.33;;;;;;;;4958433;28;46164;-64
2022/01/02 04:00:58;;;;;;;;;18.00;17.00;;;;;;;;4958382;28;45524;-62
2022/01/02 04:03:23;;;;;;;;;19.33;16.00;;;;;;;;4958489;28;45420;-61
2022/01/02 04:05:48;;;;;;;;;16.67;16.00;;;;;;;;4956887;28;45449;-63
2022/01/02 04:08:13;;;;;;;;;16.00;15.33;;;;;;;;4958259;28;45317;-64
2022/01/02 04:10:39;;;;;;;;;14.33;14.33;;;;;;;;4956742;28;45279;-61
2022/01/02 04:13:04;;;;;;;;;15.33;15.33;;;;;;;;4958405;28;45406;-63
2022/01/02 04:15:29;;;;;;;;;17.67;16.00;;;;;;;;4957674;28;45230;-62
2022/01/02 04:17:55;;;;;;;;;15.00;15.00;;;;;;;;4957801;28;45440;-62
2022/01/02 04:20:20;;;;;;;;;19.33;15.00;;;;;;;;4957868;28;45333;-64
2022/01/02 04:22:45;;;;;;;;;17.33;16.33;;;;;;;;4958075;28;45377;-62
2022/01/02 04:25:11;;;;;;;;;17.67;16.33;;;;;;;;4956783;28;45636;-64
2022/01/02 04:27:36;;;;;;;;;18.33;17.00;;;;;;;;4955726;28;46536;-62
2022/01/02 04:30:03;;;;;;;;;15.67;15.67;;;;;;;;4958100;28;45340;-63
2022/01/02 04:32:28;;;;;;;;;18.67;16.00;;;;;;;;4957966;28;45245;-61
2022/01/02 04:34:54;;;;;;;;;17.00;15.67;;;;;;;;4957592;28;45270;-63
2022/01/02 04:37:19;;;;;;;;;16.67;15.00;;;;;;;;4957555;28;46181;-62
2022/01/02 04:39:44;;;;;;;;;15.67;14.33;;;;;;;;4957239;28;45434;-62
2022/01/02 04:42:10;;;;;;;;;19.00;17.00;;;;;;;;4956625;28;45265;-62
2022/01/02 04:44:35;;;;;;;;;14.00;14.00;;;;;;;;4957862;28;45573;-63
2022/01/02 04:47:00;;;;;;;;;15.00;15.00;;;;;;;;4956294;28;46194;-64
2022/01/02 04:49:25;;;;;;;;;15.33;14.33;;;;;;;;4972139;28;45330;-62
2022/01/02 04:51:53;;;;;;;;;17.33;15.00;;;;;;;;4957773;28;45410;-64
2022/01/02 04:54:18;;;;;;;;;15.33;15.33;;;;;;;;4957802;28;45337;-63
2022/01/02 04:56:43;;;;;;;;;17.00;15.67;;;;;;;;4957352;28;45269;-65
2022/01/02 04:59:09;;;;;;;;;15.33;15.33;;;;;;;;4957538;28;45331;-62
2022/01/02 05:01:34;;;;;;;;;13.33;13.00;;;;;;;;4957277;28;45277;-64
2022/01/02 05:03:59;;;;;;;;;11.00;11.00;;;;;;;;4957648;28;45271;-65
2022/01/02 05:06:24;;;;;;;;;15.00;10.67;;;;;;;;4957281;28;45302;-64
2022/01/02 05:08:49;;;;;;;;;16.67;15.67;;;;;;;;4955990;28;45695;-65
2022/01/02 05:11:15;;;;;;;;;14.00;12.33;;;;;;;;4956951;28;45442;-63
2022/01/02 05:13:40;;;;;;;;;16.00;14.67;;;;;;;;4957278;28;45399;-65
2022/01/02 05:16:06;;;;;;;;;14.67;11.00;;;;;;;;4956589;28;46246;-63
2022/01/02 05:18:31;;;;;;;;;15.00;13.33;;;;;;;;4957226;28;45359;-63
2022/01/02 05:20:56;;;;;;;;;7.00;6.67;;;;;;;;4957205;28;45513;-63
2022/01/02 05:23:23;;;;;;;;;16.33;12.00;;;;;;;;4956740;28;45529;-64
2022/01/02 05:25:48;;;;;;;;;12.33;10.33;;;;;;;;4957216;28;46301;-64
2022/01/02 05:28:13;;;;;;;;;13.00;13.00;;;;;;;;4957137;28;45421;-62
2022/01/02 05:30:39;;;;;;;;;11.67;10.00;;;;;;;;4957227;28;45307;-63
2022/01/02 05:33:05;;;;;;;;;14.00;12.33;;;;;;;;4956570;28;45399;-62
2022/01/02 05:35:31;;;;;;;;;12.00;11.67;;;;;;;;4956631;28;46502;-62
2022/01/02 05:37:56;;;;;;;;;11.00;11.00;;;;;;;;4955854;28;46017;-64
2022/01/02 05:40:21;;;;;;;;;12.00;10.33;;;;;;;;4957332;28;45378;-64
2022/01/02 05:42:47;;;;;;;;;14.67;11.67;;;;;;;;4957152;28;45596;-62
2022/01/02 05:45:12;;;;;;;;;12.67;12.67;;;;;;;;4956300;28;45345;-64
2022/01/02 05:47:38;;;;;;;;;10.67;10.67;;;;;;;;4957122;28;45412;-63
2022/01/02 05:50:03;;;;;;;;;11.00;11.00;;;;;;;;4957222;28;45369;-63
2022/01/02 05:52:31;;;;;;;;;14.67;13.00;;;;;;;;4956764;28;45628;-63
2022/01/02 05:54:56;;;;;;;;;12.00;11.33;;;;;;;;4956385;28;45944;-64
2022/01/02 05:57:21;;;;;;;;;12.33;10.67;;;;;;;;4956445;28;45200;-62
2022/01/02 05:59:47;;;;;;;;;15.00;12.00;;;;;;;;4956817;28;45175;-64
2022/01/02 06:02:12;;;;;;;;;11.67;10.67;;;;;;;;4956842;28;45637;-63
2022/01/02 06:04:37;;;;;;;;;12.67;11.67;;;;;;;;4956474;28;45303;-64
2022/01/02 06:07:04;;;;;;;;;12.67;11.33;;;;;;;;4956041;28;45256;-62
2022/01/02 06:09:29;;;;;;;;;10.00;9.00;;;;;;;;4956924;28;45275;-65
2022/01/02 06:11:54;;;;;;;;;16.00;13.33;;;;;;;;4956784;28;45533;-65
2022/01/02 06:14:19;;;;;;;;;11.33;11.00;;;;;;;;4956436;28;46315;-64
2022/01/02 06:16:44;;;;;;;;;8.67;8.67;;;;;;;;4955935;28;45266;-64
2022/01/02 06:19:10;;;;;;;;;9.67;9.67;;;;;;;;4956543;28;45235;-65
2022/01/02 06:21:35;;;;;;;;;11.67;11.00;;;;;;;;4956466;28;45677;-64
2022/01/02 06:24:00;;;;;;;;;10.33;10.33;;;;;;;;4956330;28;45429;-64
2022/01/02 06:26:25;;;;;;;;;12.00;12.00;;;;;;;;4956278;28;45586;-63
2022/01/02 06:28:50;;;;;;;;;11.00;11.00;;;;;;;;4957757;28;45414;-65
2022/01/02 06:31:15;;;;;;;;;10.33;10.33;;;;;;;;4959686;28;45404;-65
2022/01/02 06:33:41;;;;;;;;;10.00;10.00;;;;;;;;4959369;28;45399;-65
2022/01/02 06:36:06;;;;;;;;;9.00;9.00;;;;;;;;4959569;28;45556;-64
2022/01/02 06:38:31;;;;;;;;;12.00;8.33;;;;;;;;4959400;28;45366;-63
2022/01/02 06:40:56;;;;;;;;;13.33;12.00;;;;;;;;4959405;28;45389;-62
2022/01/02 06:43:22;;;;;;;;;14.33;10.67;;;;;;;;4959315;28;45436;-64
2022/01/02 06:45:47;;;;;;;;;11.00;10.00;;;;;;;;4959542;28;45473;-62
2022/01/02 06:48:13;;;;;;;;;12.00;10.67;;;;;;;;4959598;28;45416;-65
2022/01/02 06:50:39;;;;;;;;;8.67;8.67;;;;;;;;4959017;28;45480;-64
2022/01/02 06:53:04;;;;;;;;;9.67;9.00;;;;;;;;4959400;28;45341;-64
2022/01/02 06:55:29;;;;;;;;;11.00;9.00;;;;;;;;4959208;28;45429;-63
2022/01/02 06:57:55;;;;;;;;;10.33;10.33;;;;;;;;4959502;28;45168;-61
2022/01/02 07:00:20;;;;;;;;;12.00;12.00;;;;;;;;4959209;28;45366;-63
2022/01/02 07:02:45;;;;;;;;;11.67;11.67;;;;;;;;4958880;28;45553;-63
2022/01/02 07:05:10;;;;;;;;;12.00;10.00;;;;;;;;4959281;28;45239;-64
2022/01/02 07:07:43;;;;;;;;;10.33;10.33;;;;;;;;4959367;28;45438;-65
2022/01/02 07:10:09;;;;;;;;;10.00;10.00;;;;;;;;4959323;28;45501;-64
2022/01/02 07:12:34;;;;;;;;;10.00;10.00;;;;;;;;4958377;28;46041;-65
2022/01/02 07:14:59;;;;;;;;;9.33;9.33;;;;;;;;4957496;28;45253;-63
2022/01/02 07:17:25;;;;;;;;;10.33;10.33;;;;;;;;4959057;28;45332;-64
2022/01/02 07:19:50;;;;;;;;;11.00;11.00;;;;;;;;4958943;28;45202;-63
2022/01/02 07:22:15;;;;;;;;;10.00;10.00;;;;;;;;4959082;28;45497;-64
2022/01/02 07:24:41;;;;;;;;;11.00;11.00;;;;;;;;4958635;28;45239;-63
2022/01/02 07:27:06;;;;;;;;;12.00;9.67;;;;;;;;4959131;28;45392;-65
2022/01/02 07:29:31;;;;;;;;;13.00;9.33;;;;;;;;4958998;28;45325;-64
2022/01/02 07:31:57;;;;;;;;;11.00;11.00;;;;;;;;4958809;28;45356;-63
2022/01/02 07:34:22;;;;;;;;;11.67;10.67;;;;;;;;4958132;28;45456;-61
2022/01/02 07:36:47;;;;;;;;;10.67;10.33;;;;;;;;4958642;28;45308;-64
2022/01/02 07:39:13;;;;;;;;;11.33;11.33;;;;;;;;4958682;28;45350;-64
2022/01/02 07:41:38;;;;;;;;;10.00;10.00;;;;;;;;4958636;28;45542;-63
2022/01/02 07:44:03;;;;;;;;;12.33;12.33;;;;;;;;4957173;28;45708;-65
2022/01/02 07:46:30;;;;;;;;;11.00;11.00;;;;;;;;4958228;28;45354;-62
2022/01/02 07:48:55;;;;;;;;;11.00;11.00;;;;;;;;4958719;28;45528;-64
2022/01/02 07:51:20;;;;;;;;;10.33;10.33;;;;;;;;4958484;28;45303;-65
2022/01/02 07:53:45;;;;;;;;;11.33;10.67;;;;;;;;4958574;28;45504;-63
2022/01/02 07:56:11;;;;;;;;;11.33;11.33;;;;;;;;4958036;28;45365;-63
2022/01/02 07:58:37;;;;;;;;;12.00;12.00;;;;;;;;4958668;28;45302;-63
2022/01/02 08:01:02;;;;;;;;;13.33;10.33;;;;;;;;4958251;28;46400;-62
2022/01/02 08:03:27;;;;;;;;;11.67;11.67;;;;;;;;4958511;28;45275;-64
2022/01/02 08:05:52;;;;;;;;;11.00;11.00;;;;;;;;4958344;28;45265;-63
2022/01/02 08:08:18;;;;;;;;;12.33;11.00;;;;;;;;4957747;28;45456;-65
2022/01/02 08:10:43;;;;;;;;;15.00;13.33;;;;;;;;4958084;28;46054;-63
2022/01/02 08:13:08;;;;;;;;;13.67;12.00;;;;;;;;4958232;28;45356;-64
2022/01/02 08:15:33;;;;;;;;;13.00;13.00;;;;;;;;4958168;28;45297;-65
2022/01/02 08:17:58;;;;;;;;;12.00;12.00;;;;;;;;4957762;28;45393;-64
2022/01/02 08:20:24;;;;;;;;;13.67;12.67;;;;;;;;4957711;28;46185;-65
2022/01/02 08:22:49;;;;;;;;;12.00;11.00;;;;;;;;4958067;28;45427;-63
2022/01/02 08:25:14;;;;;;;;;11.33;9.67;;;;;;;;4958286;28;45302;-63
2022/01/02 08:27:40;;;;;;;;;11.67;11.67;;;;;;;;4957982;28;45437;-63
2022/01/02 08:30:05;;;;;;;;;11.00;11.00;;;;;;;;4957314;28;46747;-64
2022/01/02 08:32:30;;;;;;;;;11.33;11.33;;;;;;;;4957788;28;45167;-65
2022/01/02 08:34:56;;;;;;;;;12.33;11.33;;;;;;;;4956543;28;45272;-63
2022/01/02 08:37:21;;;;;;;;;13.00;11.33;;;;;;;;4957883;28;45300;-62
2022/01/02 08:39:46;;;;;;;;;12.00;12.00;;;;;;;;4957203;28;46276;-64
2022/01/02 08:42:12;;;;;;;;;13.00;13.00;;;;;;;;4957815;28;45223;-65
2022/01/02 08:44:39;;;;;;;;;12.67;12.00;;;;;;;;4957713;28;45235;-63
2022/01/02 08:47:05;;;;;;;;;16.67;16.67;;;;;;;;4957793;28;45230;-62
2022/01/02 08:49:30;;;;;;;;;13.00;11.67;;;;;;;;4957535;28;45500;-63
2022/01/02 08:51:55;;;;;;;;;12.00;12.00;;;;;;;;4956259;28;45445;-63
2022/01/02 08:54:21;;;;;;;;;11.00;11.00;;;;;;;;4956361;28;45386;-63
2022/01/02 08:56:46;;;;;;;;;11.33;11.00;;;;;;;;4957482;28;45594;-63
2022/01/02 08:59:11;;;;;;;;;17.00;16.00;;;;;;;;4957440;28;45637;-65
2022/01/02 09:01:37;;;;;;;;;12.00;12.00;;;;;;;;4957083;28;45540;-62
2022/01/02 09:04:02;;;;;;;;;13.33;12.00;;;;;;;;4957534;28;45412;-66
2022/01/02 09:06:27;;;;;;;;;11.00;11.00;;;;;;;;4957547;28;45603;-63
2022/01/02 09:08:54;;;;;;;;;14.33;11.33;;;;;;;;4957233;28;45433;-64
2022/01/02 09:11:19;;;;;;;;;10.67;10.67;;;;;;;;4957237;28;45488;-63
2022/01/02 09:13:44;;;;;;;;;12.33;10.33;;;;;;;;4956915;28;45270;-62
2022/01/02 09:16:09;;;;;;;;;11.00;11.00;;;;;;;;4957350;28;45516;-63
2022/01/02 09:18:35;;;;;;;;;11.00;11.00;;;;;;;;4957260;28;45302;-63
2022/01/02 09:21:00;;;;;;;;;10.33;10.00;;;;;;;;4956587;28;45334;-63
2022/01/02 09:23:25;;;;;;;;;10.00;10.00;;;;;;;;4956936;28;45496;-64
2022/01/02 09:25:50;;;;;;;;;11.33;10.67;;;;;;;;4957003;28;45542;-62
2022/01/02 09:28:15;;;;;;;;;9.00;9.00;;;;;;;;4957015;28;45999;-65
2022/01/02 09:30:41;;;;;;;;;12.33;12.33;;;;;;;;4957083;28;45357;-65
2022/01/02 09:33:09;;;;;;;;;15.00;13.67;;;;;;;;4956984;28;45163;-65
2022/01/02 09:35:35;;;;;;;;;12.33;12.00;;;;;;;;4956463;28;45207;-64
2022/01/02 09:38:00;;;;;;;;;9.67;9.33;;;;;;;;4956643;28;45375;-66
2022/01/02 09:40:27;;;;;;;;;10.00;10.00;;;;;;;;4956764;28;45211;-63
2022/01/02 09:42:52;;;;;;;;;10.00;10.00;;;;;;;;4957069;28;45265;-64
2022/01/02 09:45:19;;;;;;;;;10.67;10.67;;;;;;;;4956768;28;45419;-65
2022/01/02 09:47:44;;;;;;;;;10.33;10.33;;;;;;;;4956494;28;45941;-65
2022/01/02 09:50:10;;;;;;;;;13.67;11.33;;;;;;;;4956746;28;45293;-65
2022/01/02 09:52:35;;;;;;;;;11.00;11.00;;;;;;;;4956981;28;45285;-63
2022/01/02 09:55:00;;;;;;;;;10.00;10.00;;;;;;;;4956784;28;45280;-62
2022/01/02 09:57:26;;;;;;;;;10.33;10.33;;;;;;;;4954683;28;48001;-65
2022/01/02 09:59:51;;;;;;;;;11.33;9.33;;;;;;;;4956434;28;45349;-63
2022/01/02 10:02:16;;;;;;;;;12.00;11.00;;;;;;;;4957518;28;45416;-65
2022/01/02 10:04:42;;;;;;;;;10.67;9.67;;;;;;;;4960102;28;45461;-62
2022/01/02 10:07:29;;;;;;;;;11.67;11.67;;;;;;;;4959571;28;46175;-62
2022/01/02 10:09:54;;;;;;;;;14.00;11.00;;;;;;;;4959550;28;45253;-65
2022/01/02 10:12:20;;;;;;;;;11.67;10.00;;;;;;;;4959772;28;45259;-63
2022/01/02 10:14:46;;;;;;;;;12.00;9.67;;;;;;;;4959513;28;45500;-65
2022/01/02 10:17:11;;;;;;;;;13.00;13.00;;;;;;;;4959377;28;46667;-65
2022/01/02 10:19:38;;;;;;;;;11.00;11.00;;;;;;;;4958928;28;45416;-63
2022/01/02 10:22:06;;;;;;;;;10.00;10.00;;;;;;;;4959875;28;45354;-64
2022/01/02 10:24:32;;;;;;;;;10.00;10.00;;;;;;;;4959946;28;45444;-66
2022/01/02 10:27:04;;;;;;;;;11.00;9.67;;;;;;;;4959430;28;45219;-65
2022/01/02 10:29:39;;;;;;;;;10.00;8.33;;;;;;;;4959221;28;45465;-64
2022/01/02 10:32:23;;;;;;;;;11.00;8.00;;;;;;;;4959565;28;45361;-64
2022/01/02 10:34:48;;;;;;;;;9.33;9.33;;;;;;;;4959462;28;45388;-64
2022/01/02 10:37:26;;;;;;;;;6.00;6.00;;;;;;;;4959373;28;45326;-62
2022/01/02 10:39:52;;;;;;;;;7.67;6.33;;;;;;;;4959593;28;46051;-62
2022/01/02 10:42:18;;;;;;;;;6.67;5.00;;;;;;;;4959316;28;45202;-65
2022/01/02 10:44:43;;;;;;;;;1.33;1.33;;;;;;;;4959735;28;45504;-64
2022/01/02 10:47:16;;;;;;;;;9.00;6.00;;;;;;;;4959484;28;45368;-63
2022/01/02 10:50:20;;;;;;;;;5.67;5.67;;;;;;;;4958258;28;45224;-65
2022/01/02 10:52:47;;;;;;;;;5.33;5.33;;;;;;;;4899469;29;45372;-63
2022/01/02 10:55:16;;;;;;;;;6.00;6.00;;;;;;;;4899765;29;45227;-62
2022/01/02 10:57:42;;;;;;;;;10.67;7.33;;;;;;;;4929014;28;46263;-66
2022/01/02 11:00:08;;;;;;;;;7.00;5.33;;;;;;;;4959418;28;45461;-65
2022/01/02 11:02:33;;;;;;;;;5.00;5.00;;;;;;;;4958883;28;45451;-64
2022/01/02 11:05:01;;;;;;;;;5.33;5.33;;;;;;;;4959130;28;45605;-64
2022/01/02 11:07:29;;;;;;;;;10.33;7.00;;;;;;;;4959190;28;45405;-62
2022/01/02 11:09:55;;;;;;;;;7.00;6.67;;;;;;;;4959276;28;45234;-65
2022/01/02 11:12:21;;;;;;;;;4.33;2.00;;;;;;;;4959521;28;45358;-65
2022/01/02 11:14:47;;;;;;;;;4.00;4.00;;;;;;;;4958236;28;45508;-63
2022/01/02 11:17:13;;;;;;;;;5.67;5.67;;;;;;;;4958947;28;46027;-63
2022/01/02 11:19:39;;;;;;;;;6.00;4.00;;;;;;;;4958899;28;45232;-62
2022/01/02 11:22:05;;;;;;;;;6.33;5.67;;;;;;;;4959072;28;45485;-62
2022/01/02 11:24:38;;;;;;;;;6.33;5.33;;;;;;;;4958769;28;45492;-65
2022/01/02 11:27:11;;;;;;;;;10.67;6.00;;;;;;;;4973142;28;46721;-62
2022/01/02 11:29:36;;;;;;;;;6.00;5.67;;;;;;;;4959060;28;45250;-62
2022/01/02 11:32:19;;;;;;;;;6.00;5.00;;;;;;;;4958856;28;45331;-64
2022/01/02 11:34:46;;;;;;;;;6.67;5.00;;;;;;;;4958920;28;45382;-63
2022/01/02 11:37:11;;;;;;;;;5.00;5.00;;;;;;;;4956766;28;46963;-61
2022/01/02 11:39:53;;;;;;;;;5.00;5.00;;;;;;;;4958787;28;45347;-65
2022/01/02 11:42:38;;;;;;;;;8.67;5.00;;;;;;;;4958910;28;45307;-64
2022/01/02 11:45:04;;;;;;;;;6.33;6.33;;;;;;;;4958635;28;45560;-64
2022/01/02 11:47:47;;;;;;;;;5.00;5.00;;;;;;;;4957957;28;45284;-62
2022/01/02 11:50:30;;;;;;;;;7.33;6.33;;;;;;;;4958492;28;45238;-63
2022/01/02 11:53:14;;;;;;;;;9.67;7.67;;;;;;;;4958597;28;45175;-64
2022/01/02 11:55:42;;;;;;;;;10.00;6.67;;;;;;;;4958502;28;45294;-64
2022/01/02 11:58:08;;;;;;;;;5.00;5.00;;;;;;;;4957729;28;45408;-63
2022/01/02 12:00:53;;;;;;;;;5.67;5.00;;;;;;;;4958256;28;45316;-63
2022/01/02 12:03:37;;;;;;;;;7.33;6.33;;;;;;;;4958029;28;45264;-65
2022/01/02 12:06:20;;;;;;;;;6.67;6.67;;;;;;;;4958335;28;45289;-64
2022/01/02 12:08:45;;;;;;;;;7.00;7.00;;;;;;;;4957698;28;45348;-65
2022/01/02 12:11:29;;;;;;;;;4.00;3.67;;;;;;;;4958264;28;45345;-64
2022/01/02 12:14:04;;;;;;;;;6.00;4.67;;;;;;;;4958270;28;45322;-63
2022/01/02 12:16:34;;;;;;;;;10.67;9.00;;;;;;;;4958166;28;45571;-63
2022/01/02 12:19:00;;;;;;;;;7.00;5.67;;;;;;;;4957901;28;47073;-63
2022/01/02 12:21:26;;;;;;;;;5.00;5.00;;;;;;;;4957224;28;45469;-64
2022/01/02 12:23:53;;;;;;;;;7.00;6.00;;;;;;;;4958332;28;45342;-63
2022/01/02 12:26:26;;;;;;;;;7.00;5.33;;;;;;;;4957129;28;45500;-61
2022/01/02 12:29:13;;;;;;;;;6.33;6.33;;;;;;;;4957499;28;45396;-65
2022/01/02 12:31:38;;;;;;;;;4.67;4.67;;;;;;;;4957073;28;45504;-64
2022/01/02 12:34:05;;;;;;;;;6.00;6.00;;;;;;;;4957964;28;45330;-65
2022/01/02 12:36:30;;;;;;;;;8.67;8.33;;;;;;;;4957945;28;45452;-63
2022/01/02 12:39:00;;;;;;;;;5.00;5.00;;;;;;;;4957527;28;45457;-63
2022/01/02 12:41:26;;;;;;;;;4.67;4.33;;;;;;;;4957709;28;45446;-64
2022/01/02 12:43:51;;;;;;;;;9.33;6.33;;;;;;;;4957770;28;45348;-63
2022/01/02 12:46:32;;;;;;;;;9.33;7.67;;;;;;;;4958095;28;45263;-65
2022/01/02 12:48:57;;;;;;;;;4.00;4.00;;;;;;;;4957914;28;45385;-64
2022/01/02 12:51:27;;;;;;;;;4.67;4.67;;;;;;;;4957820;28;45365;-64
2022/01/02 12:54:00;;;;;;;;;4.00;4.00;;;;;;;;4957289;28;45330;-65
2022/01/02 12:56:36;;;;;;;;;6.00;5.00;;;;;;;;4957614;28;45243;-62
2022/01/02 12:59:21;;;;;;;;;6.00;5.00;;;;;;;;4957339;28;45672;-64
2022/01/02 13:01:54;;;;;;;;;5.00;4.00;;;;;;;;4957599;28;45262;-63
2022/01/02 13:04:21;;;;;;;;;5.33;4.67;;;;;;;;4957071;28;45236;-64
2022/01/02 13:06:47;;;;;;;;;7.00;6.00;;;;;;;;4957646;28;45409;-62
2022/01/02 13:09:20;;;;;;;;;5.00;3.67;;;;;;;;4956983;28;45453;-62
2022/01/02 13:11:45;;;;;;;;;4.33;4.33;;;;;;;;4957749;28;45427;-63
2022/01/02 13:14:10;;;;;;;;;5.00;5.00;;;;;;;;4957519;28;45353;-62
2022/01/02 13:16:36;;;;;;;;;5.00;4.00;;;;;;;;4956936;28;45423;-63
2022/01/02 13:19:01;;;;;;;;;3.00;3.00;;;;;;;;4957167;28;45392;-64
2022/01/02 13:21:26;;;;;;;;;5.00;5.00;;;;;;;;4957121;28;45362;-65
2022/01/02 13:23:51;;;;;;;;;6.33;4.33;;;;;;;;4957375;28;45215;-62
2022/01/02 13:26:18;;;;;;;;;5.00;4.67;;;;;;;;4955666;28;45603;-63
2022/01/02 13:28:43;;;;;;;;;4.00;4.00;;;;;;;;4957042;28;46119;-64
2022/01/02 13:31:09;;;;;;;;;7.00;5.33;;;;;;;;4956931;28;45306;-63
2022/01/02 13:33:39;;;;;;;;;3.67;2.67;;;;;;;;4957195;28;45376;-62
2022/01/02 13:36:09;;;;;;;;;3.00;3.00;;;;;;;;4957247;28;45525;-66
2022/01/02 13:38:49;;;;;;;;;4.00;4.00;;;;;;;;4959285;28;45419;-64
2022/01/02 13:41:14;;;;;;;;;6.33;5.00;;;;;;;;4960748;28;45156;-62
2022/01/02 13:43:40;;;;;;;;;8.33;4.33;;;;;;;;4960261;28;45444;-63
2022/01/02 13:46:05;;;;;;;;;4.33;3.00;;;;;;;;4959261;28;45433;-63
2022/01/02 13:48:30;;;;;;;;;3.33;3.33;;;;;;;;4959927;28;47928;-63
2022/01/02 13:50:58;;;;;;;;;2.67;2.67;;;;;;;;4960393;28;45375;-63
2022/01/02 13:53:23;;;;;;;;;5.00;4.00;;;;;;;;4960846;28;45396;-65
2022/01/02 13:55:50;;;;;;;;;3.00;2.67;;;;;;;;4960140;28;45594;-64
2022/01/02 13:58:17;;;;;;;;;3.00;3.00;;;;;;;;4960443;28;45401;-64
2022/01/02 14:00:44;;;;;;;;;4.00;4.00;;;;;;;;4959904;28;45279;-65
2022/01/02 14:03:26;;;;;;;;;4.00;3.00;;;;;;;;4960295;28;45369;-65
2022/01/02 14:05:51;;;;;;;;;2.67;2.67;;;;;;;;4960132;28;45297;-65
2022/01/02 14:08:18;;;;;;;;;3.00;3.00;;;;;;;;4960090;28;45245;-64
2022/01/02 14:10:44;;;;;;;;;4.67;3.67;;;;;;;;4959477;28;45401;-65
2022/01/02 14:13:13;;;;;;;;;2.67;2.67;;;;;;;;4960040;28;45412;-65
2022/01/02 14:15:38;;;;;;;;;3.67;2.67;;;;;;;;4960025;28;45505;-63
2022/01/02 14:18:04;;;;;;;;;3.67;3.67;;;;;;;;4959720;28;46111;-65
2022/01/02 14:20:34;;;;;;;;;3.67;3.33;;;;;;;;4959249;28;46330;-64
2022/01/02 14:23:01;;;;;;;;;2.67;2.67;;;;;;;;4960214;28;45372;-62
2022/01/02 14:25:26;;;;;;;;;5.00;2.67;;;;;;;;4960085;28;45377;-62